createdAt,value
2018-08-25T00:02:20.476Z,82.25
2018-08-25T00:04:48.944Z,82.24
2018-08-25T00:07:17.729Z,82.10
2018-08-25T00:09:46.176Z,82.11
2018-08-25T00:12:14.628Z,82.34
2018-08-25T00:14:43.222Z,82.21
2018-08-25T00:17:11.666Z,82.54
2018-08-25T00:19:40.252Z,82.30
2018-08-25T00:22:08.963Z,82.28
2018-08-25T00:24:37.407Z,82.28
2018-08-25T00:27:06.096Z,82.07
2018-08-25T00:29:34.522Z,82.03
2018-08-25T00:32:02.983Z,82.11
2018-08-25T00:34:31.430Z,82.32
2018-08-25T00:37:00.231Z,81.86
2018-08-25T00:39:28.733Z,81.79
2018-08-25T00:41:57.151Z,82.06
2018-08-25T00:44:25.630Z,81.72
2018-08-25T00:46:54.128Z,81.97
2018-08-25T00:49:22.705Z,81.78
2018-08-25T00:51:51.160Z,81.21
2018-08-25T00:54:19.617Z,81.13
2018-08-25T00:56:48.166Z,80.96
2018-08-25T00:59:16.647Z,81.28
2018-08-25T01:01:45.561Z,81.36
2018-08-25T01:04:14.019Z,81.26
2018-08-25T01:06:42.455Z,81.28
2018-08-25T01:09:11.186Z,81.69
2018-08-25T01:11:39.656Z,81.53
2018-08-25T01:14:08.148Z,81.61
2018-08-25T01:16:36.664Z,81.66
2018-08-25T01:19:05.249Z,81.48
2018-08-25T01:21:33.721Z,81.55
2018-08-25T01:24:02.209Z,82.00
2018-08-25T01:26:30.636Z,82.04
2018-08-25T01:28:59.082Z,81.99
2018-08-25T01:31:29.337Z,82.46
2018-08-25T01:33:59.354Z,82.44
2018-08-25T01:36:27.871Z,82.44
2018-08-25T01:38:56.350Z,82.53
2018-08-25T01:41:25.140Z,82.14
2018-08-25T01:43:53.607Z,82.10
2018-08-25T01:46:22.072Z,81.71
2018-08-25T01:48:50.593Z,81.68
2018-08-25T01:51:19.043Z,81.94
2018-08-25T01:53:47.529Z,82.11
2018-08-25T01:56:15.974Z,82.09
2018-08-25T01:58:44.816Z,81.66
2018-08-25T02:01:13.288Z,81.94
2018-08-25T02:03:41.765Z,81.46
2018-08-25T02:06:10.212Z,81.65
2018-08-25T02:08:38.699Z,81.85
2018-08-25T02:11:07.196Z,81.55
2018-08-25T02:13:35.628Z,81.58
2018-08-25T02:16:04.065Z,81.87
2018-08-25T02:18:32.520Z,81.99
2018-08-25T02:21:00.983Z,82.16
2018-08-25T02:23:29.539Z,82.39
2018-08-25T02:25:57.985Z,82.30
2018-08-25T02:28:26.430Z,82.30
2018-08-25T02:30:54.875Z,82.45
2018-08-25T02:33:23.343Z,82.20
2018-08-25T02:35:51.767Z,82.49
2018-08-25T02:38:20.250Z,81.96
2018-08-25T02:40:48.711Z,81.90
2018-08-25T02:43:17.178Z,82.12
2018-08-25T02:45:45.667Z,82.45
2018-08-25T02:48:14.142Z,82.28
2018-08-25T02:50:42.630Z,82.22
2018-08-25T02:53:11.058Z,82.30
2018-08-25T02:55:39.873Z,81.95
2018-08-25T02:58:08.401Z,81.89
2018-08-25T03:00:36.865Z,82.13
2018-08-25T03:03:05.327Z,81.97
2018-08-25T03:05:33.808Z,81.76
2018-08-25T03:08:02.275Z,82.46
2018-08-25T03:10:30.770Z,82.53
2018-08-25T03:12:59.292Z,82.61
2018-08-25T03:15:27.703Z,82.40
2018-08-25T03:17:56.161Z,82.12
2018-08-25T03:20:24.618Z,81.95
2018-08-25T03:22:53.075Z,82.50
2018-08-25T03:25:21.953Z,81.88
2018-08-25T03:27:50.387Z,82.15
2018-08-25T03:30:18.844Z,82.30
2018-08-25T03:32:47.317Z,82.16
2018-08-25T03:35:15.757Z,82.55
2018-08-25T03:37:44.251Z,82.73
2018-08-25T03:40:12.984Z,82.83
2018-08-25T03:42:41.464Z,83.03
2018-08-25T03:45:09.940Z,82.86
2018-08-25T03:47:38.391Z,83.65
2018-08-25T03:50:06.895Z,82.80
2018-08-25T03:52:35.336Z,82.64
2018-08-25T03:55:03.864Z,82.47
2018-08-25T03:57:32.325Z,82.80
2018-08-25T04:00:00.781Z,82.65
2018-08-25T04:02:29.376Z,83.06
2018-08-25T04:04:57.861Z,83.12
2018-08-25T04:07:26.301Z,83.06
2018-08-25T04:09:54.772Z,82.89
2018-08-25T04:12:23.184Z,82.77
2018-08-25T04:14:51.712Z,82.67
2018-08-25T04:17:20.194Z,83.28
2018-08-25T04:19:48.629Z,83.02
2018-08-25T04:22:17.232Z,82.97
2018-08-25T04:24:45.627Z,83.08
2018-08-25T04:27:14.056Z,83.23
2018-08-25T04:29:42.511Z,82.82
2018-08-25T04:32:10.980Z,82.72
2018-08-25T04:34:39.442Z,83.54
2018-08-25T04:37:07.892Z,83.21
2018-08-25T04:39:36.386Z,83.03
2018-08-25T04:42:04.892Z,83.11
2018-08-25T04:44:33.332Z,83.40
2018-08-25T04:47:01.847Z,82.88
2018-08-25T04:49:30.296Z,82.81
2018-08-25T04:51:58.771Z,82.62
2018-08-25T04:54:27.287Z,82.54
2018-08-25T04:56:55.792Z,82.52
2018-08-25T04:59:24.216Z,82.89
2018-08-25T05:01:52.751Z,82.91
2018-08-25T05:04:21.208Z,83.11
2018-08-25T05:06:49.692Z,82.89
2018-08-25T05:09:18.120Z,82.91
2018-08-25T05:11:46.548Z,82.59
2018-08-25T05:14:15.018Z,82.96
2018-08-25T05:16:43.459Z,82.83
2018-08-25T05:19:11.921Z,83.21
2018-08-25T05:21:40.344Z,82.68
2018-08-25T05:24:08.816Z,82.78
2018-08-25T05:26:37.316Z,82.26
2018-08-25T05:29:05.781Z,81.36
